Time,TemperatureF,DewpointF,PressureIn,WindDirection,WindDirectionDegrees,WindSpeedMPH,WindSpeedGustMPH,Humidity,HourlyPrecipIn,Conditions,Clouds,dailyrainin,SolarRadiationWatts/m^2,UVIndex,SoftwareType,DateUTC
2026-05-05 00:04:59,63.5,51.3,30.02,SSW,198,6,12,64.6,0.00,,,0.00,0,0,n/a,2026-05-05T04:04:59Z
2026-05-05 00:09:56,63.4,51.4,30.02,SSW,204,7.8,14.4,65,0.00,,,0.00,0,0,n/a,2026-05-05T04:09:56Z
2026-05-05 00:14:56,63.4,51.4,30.03,SSW,200,5.7,15,65,0.00,,,0.00,0,0,n/a,2026-05-05T04:14:56Z
2026-05-05 00:19:57,63.2,51.2,30.03,SSW,205,5.2,10.8,65,0.00,,,0.00,0,0,n/a,2026-05-05T04:19:57Z
2026-05-05 00:24:56,63,51,30.03,SSW,203,5.9,15,65,0.00,,,0.00,0,0,n/a,2026-05-05T04:24:56Z
2026-05-05 00:29:59,63,51,30.03,SSW,204,4.7,10.4,65,0.00,,,0.00,0,0,n/a,2026-05-05T04:29:59Z
2026-05-05 00:34:58,62.9,51.2,30.03,SSW,210,5.3,10.8,65.6,0.00,,,0.00,0,0,n/a,2026-05-05T04:34:58Z
2026-05-05 00:39:57,62.8,51.2,30.03,SSW,210,6.1,10.8,65.6,0.00,,,0.00,0,0,n/a,2026-05-05T04:39:57Z
2026-05-05 00:44:59,62.9,51,30.03,SSW,211,5.7,10.8,65,0.00,,,0.00,0,0,n/a,2026-05-05T04:44:59Z
2026-05-05 00:49:57,62.9,51,30.02,SSW,205,6.2,12,65,0.00,,,0.00,0,0,n/a,2026-05-05T04:49:57Z
2026-05-05 00:54:59,62.8,50.9,30.02,SSW,208,7,16.1,65,0.00,,,0.00,0,0,n/a,2026-05-05T04:54:59Z
2026-05-05 00:59:58,62.7,50.8,30.03,SSW,208,5.4,10.8,65,0.00,,,0.00,0,0,n/a,2026-05-05T04:59:58Z
2026-05-05 01:04:57,62.6,50.7,30.03,SSW,206,5.2,10.4,65.1,0.00,,,0.00,0,0,n/a,2026-05-05T05:04:57Z
2026-05-05 01:09:57,62.5,50.8,30.03,SSW,212,5.4,12,65.4,0.00,,,0.00,0,0,n/a,2026-05-05T05:09:57Z
2026-05-05 01:14:56,62.4,50.5,30.03,SSW,209,5.2,9.2,65,0.00,,,0.00,0,0,n/a,2026-05-05T05:14:56Z
2026-05-05 01:19:58,62.3,50.4,30.03,SSW,208,5.4,9.6,65,0.00,,,0.00,0,0,n/a,2026-05-05T05:19:58Z
2026-05-05 01:24:57,62.2,50.5,30.03,SSW,204,4.1,10.8,65.5,0.00,,,0.00,0,0,n/a,2026-05-05T05:24:57Z
2026-05-05 01:29:59,62,50.5,30.03,SSW,211,4.3,10.4,66,0.00,,,0.00,0,0,n/a,2026-05-05T05:29:59Z
2026-05-05 01:34:57,61.9,50.4,30.02,SSW,203,4.7,8.4,66,0.00,,,0.00,0,0,n/a,2026-05-05T05:34:57Z
2026-05-05 01:39:57,61.7,50.2,30.02,SSW,203,5.6,10.8,66,0.00,,,0.00,0,0,n/a,2026-05-05T05:39:57Z
2026-05-05 01:44:56,61.7,50.2,30.02,SSW,203,3.7,7.2,66,0.00,,,0.00,0,0,n/a,2026-05-05T05:44:56Z
2026-05-05 01:49:58,61.5,50.2,30.02,SSW,195,5,8.4,66.6,0.00,,,0.00,0,0,n/a,2026-05-05T05:49:58Z
2026-05-05 01:54:56,61.4,50.3,30.02,SSW,199,3.5,7.2,67,0.00,,,0.00,0,0,n/a,2026-05-05T05:54:56Z
2026-05-05 01:59:59,61.2,50.3,30.02,SSW,197,4.9,8.4,67.3,0.00,,,0.00,0,0,n/a,2026-05-05T05:59:59Z
2026-05-05 02:04:58,61,50.4,30.02,SSW,203,3.7,8.1,68,0.00,,,0.00,0,0,n/a,2026-05-05T06:04:58Z
2026-05-05 02:09:59,60.9,50.3,30.02,SSW,196,4.6,8.4,68,0.00,,,0.00,0,0,n/a,2026-05-05T06:09:59Z
2026-05-05 02:14:58,60.8,50.2,30.02,SSW,207,4.7,7.2,68,0.00,,,0.00,0,0,n/a,2026-05-05T06:14:58Z
2026-05-05 02:19:57,60.9,50.3,30.02,SSW,208,4.3,9.6,68,0.00,,,0.00,0,0,n/a,2026-05-05T06:19:57Z
2026-05-05 02:24:59,60.7,50.1,30.02,SSW,205,3.5,8.4,68,0.00,,,0.00,0,0,n/a,2026-05-05T06:24:59Z
2026-05-05 02:29:58,60.6,50.2,30.02,SSW,206,3.8,8.4,68.5,0.00,,,0.00,0,0,n/a,2026-05-05T06:29:58Z
2026-05-05 02:34:56,60.5,50.3,30.01,SSW,203,3.5,6.9,69,0.00,,,0.00,0,0,n/a,2026-05-05T06:34:56Z
2026-05-05 02:39:59,60.4,50.2,30.01,SSW,202,3.2,7.2,69,0.00,,,0.00,0,0,n/a,2026-05-05T06:39:59Z
2026-05-05 02:44:58,60.3,50.1,30.02,SSW,203,4.5,8.4,69,0.00,,,0.00,0,0,n/a,2026-05-05T06:44:58Z
2026-05-05 02:49:57,60.2,50.2,30.02,SSW,203,4.8,9.6,69.6,0.00,,,0.00,0,0,n/a,2026-05-05T06:49:57Z
2026-05-05 02:54:59,60,50.2,30.02,SSW,205,3.6,7.2,70,0.00,,,0.00,0,0,n/a,2026-05-05T06:54:59Z
2026-05-05 02:59:57,59.9,50.1,30.02,SSW,203,4.1,10.8,70,0.00,,,0.00,0,0,n/a,2026-05-05T06:59:57Z
2026-05-05 03:04:58,59.8,50.2,30.02,SSW,195,3.3,7.2,70.5,0.00,,,0.00,0,0,n/a,2026-05-05T07:04:58Z
2026-05-05 03:09:58,59.6,50.2,30.02,SSW,199,3.9,7.2,71,0.00,,,0.00,0,0,n/a,2026-05-05T07:09:58Z
2026-05-05 03:14:58,59.5,50.4,30.02,SSW,194,5.5,12,71.6,0.00,,,0.00,0,0,n/a,2026-05-05T07:14:58Z
2026-05-05 03:19:56,59.4,50.4,30.02,South,185,3.4,6,72,0.00,,,0.00,0,0,n/a,2026-05-05T07:19:56Z
2026-05-05 03:24:59,59.2,50.2,30.02,South,189,2.9,5.8,72,0.00,,,0.00,0,0,n/a,2026-05-05T07:24:59Z
2026-05-05 03:29:57,59,50.3,30.02,SSW,200,2.7,4.8,72.7,0.00,,,0.00,0,0,n/a,2026-05-05T07:29:57Z
2026-05-05 03:34:56,58.8,50.2,30.02,SSW,195,3,4.8,73,0.00,,,0.00,0,0,n/a,2026-05-05T07:34:56Z
2026-05-05 03:39:59,58.6,50,30.02,South,171,1.9,4.6,73,0.00,,,0.00,0,0,n/a,2026-05-05T07:39:59Z
2026-05-05 03:44:58,58.4,50.1,30.02,SSW,193,1.8,3.6,74,0.00,,,0.00,0,0,n/a,2026-05-05T07:44:58Z
2026-05-05 03:49:56,58.2,50.1,30.02,SSW,198,2.7,4.8,74.3,0.00,,,0.00,0,0,n/a,2026-05-05T07:49:56Z
2026-05-05 03:54:59,58.1,50.2,30.02,South,187,1.8,3.6,75,0.00,,,0.00,0,0,n/a,2026-05-05T07:54:59Z
2026-05-05 03:59:58,57.9,50,30.02,South,189,1.4,2.4,75,0.00,,,0.00,0,0,n/a,2026-05-05T07:59:58Z
2026-05-05 04:04:57,57.7,50,30.02,South,171,1.5,2.4,75.6,0.00,,,0.00,0,0,n/a,2026-05-05T08:04:57Z
2026-05-05 04:09:58,57.5,50,30.02,South,169,1.2,2.4,75.8,0.00,,,0.00,0,0,n/a,2026-05-05T08:09:58Z
2026-05-05 04:14:57,57.3,49.8,30.02,South,184,1.2,3.6,76,0.00,,,0.00,0,0,n/a,2026-05-05T08:14:57Z
2026-05-05 04:19:56,57.1,49.7,30.02,SSW,194,0.1,1.2,76.4,0.00,,,0.00,0,0,n/a,2026-05-05T08:19:56Z
2026-05-05 04:24:59,56.8,49.7,30.02,SSW,194,0.2,1.2,76.8,0.00,,,0.00,0,0,n/a,2026-05-05T08:24:59Z
2026-05-05 04:29:58,56.6,49.5,30.02,SSW,194,0,1.2,77,0.00,,,0.00,0,0,n/a,2026-05-05T08:29:58Z
2026-05-05 04:34:57,56.2,49.6,30.02,SSW,194,0.8,1.2,78.5,0.00,,,0.00,0,0,n/a,2026-05-05T08:34:57Z
2026-05-05 04:39:56,55.5,49.4,30.02,South,182,1.2,2.4,79.8,0.00,,,0.00,0,0,n/a,2026-05-05T08:39:56Z
2026-05-05 04:44:59,55,49.3,30.03,South,172,0.5,2.3,81,0.00,,,0.00,0,0,n/a,2026-05-05T08:44:59Z
2026-05-05 04:49:58,54.5,48.9,30.03,South,172,0,1.2,81.2,0.00,,,0.00,0,0,n/a,2026-05-05T08:49:58Z
2026-05-05 04:54:57,54.2,48.8,30.03,South,172,0.4,1.2,82,0.00,,,0.00,0,0,n/a,2026-05-05T08:54:57Z
2026-05-05 04:59:56,53.8,48.6,30.03,South,172,0,1.2,82.5,0.00,,,0.00,0,0,n/a,2026-05-05T08:59:56Z
2026-05-05 05:04:56,53.5,48.6,30.03,South,172,0,0,83.4,0.00,,,0.00,0,0,n/a,2026-05-05T09:04:56Z
2026-05-05 05:09:57,53.2,48.5,30.03,South,172,0,0,84,0.00,,,0.00,0,0,n/a,2026-05-05T09:09:57Z
2026-05-05 05:14:56,52.8,48.3,30.03,South,172,0,0,84.7,0.00,,,0.00,0,0,n/a,2026-05-05T09:14:56Z
2026-05-05 05:19:59,52.4,48.2,30.03,South,172,0.6,2.4,85.5,0.00,,,0.00,0,0,n/a,2026-05-05T09:19:59Z
2026-05-05 05:24:58,52,47.9,30.03,South,172,0.9,2.4,86,0.00,,,0.00,0,0,n/a,2026-05-05T09:24:58Z
2026-05-05 05:29:57,51.7,47.9,30.04,South,172,0.8,1.2,86.8,0.00,,,0.00,0,0,n/a,2026-05-05T09:29:57Z
2026-05-05 05:34:59,51.4,47.8,30.04,South,172,0.5,2.4,87.1,0.00,,,0.00,0,0,n/a,2026-05-05T09:34:59Z
2026-05-05 05:39:59,51.1,47.6,30.04,South,172,0.8,2.3,87.5,0.00,,,0.00,0,0,n/a,2026-05-05T09:39:59Z
2026-05-05 05:44:57,50.8,47.4,30.04,South,172,0.5,1.2,88,0.00,,,0.00,0,0,n/a,2026-05-05T09:44:57Z
2026-05-05 05:49:56,50.6,47.3,30.04,South,172,0.5,1.2,88.4,0.00,,,0.00,0,0,n/a,2026-05-05T09:49:56Z
2026-05-05 05:54:59,50.3,47.2,30.04,South,172,0.5,1.2,89,0.00,,,0.00,0,0,n/a,2026-05-05T09:54:59Z
2026-05-05 05:59:58,50.2,47.1,30.04,South,172,0.2,1.2,89,0.00,,,0.00,0,0,n/a,2026-05-05T09:59:58Z
2026-05-05 06:04:58,50,46.9,30.04,South,172,0.4,1.2,89.2,0.00,,,0.00,0,0,n/a,2026-05-05T10:04:58Z
2026-05-05 06:09:59,49.8,47,30.04,South,172,0.5,1.2,89.9,0.00,,,0.00,0,0,n/a,2026-05-05T10:09:59Z
2026-05-05 06:14:58,49.7,46.9,30.04,South,172,0.6,1.2,90,0.00,,,0.00,0,0,n/a,2026-05-05T10:14:58Z
2026-05-05 06:19:57,49.6,46.9,30.04,SSE,168,0.4,1.2,90.3,0.00,,,0.00,0,0,n/a,2026-05-05T10:19:57Z
2026-05-05 06:24:56,49.5,46.9,30.04,North,8,0.8,1.2,90.7,0.00,,,0.00,5,0,n/a,2026-05-05T10:24:56Z
2026-05-05 06:29:59,49.3,46.8,30.05,North,355,0.2,1.2,91,0.00,,,0.00,9,0,n/a,2026-05-05T10:29:59Z
2026-05-05 06:34:58,49.2,46.7,30.05,North,355,0.5,1.2,91,0.00,,,0.00,12,0,n/a,2026-05-05T10:34:58Z
2026-05-05 06:39:58,49.1,46.6,30.05,North,355,0.5,1.2,91,0.00,,,0.00,14,0,n/a,2026-05-05T10:39:58Z
2026-05-05 06:44:57,49.1,46.7,30.05,North,355,0.3,1.2,91.3,0.00,,,0.00,30,0,n/a,2026-05-05T10:44:57Z
2026-05-05 06:49:56,49.1,46.9,30.05,North,355,0,0,92,0.00,,,0.00,39,0,n/a,2026-05-05T10:49:56Z
2026-05-05 06:54:58,49.5,47.3,30.05,North,355,0,0,92.2,0.00,,,0.00,49,0,n/a,2026-05-05T10:54:58Z
2026-05-05 06:59:56,50.4,48.5,30.06,North,355,0,0,93,0.00,,,0.00,63,0,n/a,2026-05-05T10:59:56Z
2026-05-05 07:04:56,51.1,49.1,30.06,North,355,0,1.2,93,0.00,,,0.00,76,0,n/a,2026-05-05T11:04:56Z
2026-05-05 07:09:57,52,50,30.06,North,355,0,1.2,93.2,0.00,,,0.00,91,0,n/a,2026-05-05T11:09:57Z
2026-05-05 07:14:56,52.9,50.9,30.07,North,355,0.3,1.2,93,0.00,,,0.00,109,0,n/a,2026-05-05T11:14:56Z
2026-05-05 07:19:58,53.7,51.4,30.07,North,355,0,0,92.1,0.00,,,0.00,121,0,n/a,2026-05-05T11:19:58Z
2026-05-05 07:24:57,54.6,52.3,30.07,North,355,0,1.2,92,0.00,,,0.00,128,0,n/a,2026-05-05T11:24:57Z
2026-05-05 07:29:59,55.9,53.2,30.07,North,355,0.1,1.2,90.6,0.00,,,0.00,142,0,n/a,2026-05-05T11:29:59Z
2026-05-05 07:34:58,57.1,53.7,30.07,North,355,0,1.2,88.5,0.00,,,0.00,165,0,n/a,2026-05-05T11:34:58Z
2026-05-05 07:39:56,58.3,54,30.07,North,355,0.4,1.2,85.6,0.00,,,0.00,171,0,n/a,2026-05-05T11:39:56Z
2026-05-05 07:44:59,59.1,53.4,30.07,NW,307,1.3,3.6,81.5,0.00,,,0.00,181,0,n/a,2026-05-05T11:44:59Z
2026-05-05 07:49:57,59,52.8,30.07,South,182,1.7,2.4,80,0.00,,,0.00,218,0.5,n/a,2026-05-05T11:49:57Z
2026-05-05 07:54:59,58.9,52.8,30.07,South,190,2.1,4.8,80.3,0.00,,,0.00,232,0.5,n/a,2026-05-05T11:54:59Z
2026-05-05 07:59:59,59,53,30.07,South,177,3.1,7.2,80.4,0.00,,,0.00,236,0.6,n/a,2026-05-05T11:59:59Z
2026-05-05 08:04:59,59.2,53.1,30.07,SSW,201,2.5,4.8,80.2,0.00,,,0.00,248,0.7,n/a,2026-05-05T12:04:59Z
2026-05-05 08:09:58,59.5,53.2,30.07,SSW,211,3.6,8.4,79.5,0.00,,,0.00,260,0.8,n/a,2026-05-05T12:09:58Z
2026-05-05 08:14:57,60.1,53.3,30.07,SSW,212,4.1,8.4,78.5,0.00,,,0.00,276,0.8,n/a,2026-05-05T12:14:57Z
2026-05-05 08:19:59,60.6,53.5,30.07,SW,216,4.8,10.8,77.4,0.00,,,0.00,292,0.9,n/a,2026-05-05T12:19:59Z
2026-05-05 08:24:57,61.2,53.7,30.07,SW,223,4.4,10.8,76.5,0.00,,,0.00,315,1,n/a,2026-05-05T12:24:57Z
2026-05-05 08:29:59,61.6,53.9,30.07,SW,227,3.8,10.4,75.6,0.00,,,0.00,315,1.1,n/a,2026-05-05T12:29:59Z
2026-05-05 08:34:56,62.1,54.1,30.07,SW,220,3.6,7.2,75,0.00,,,0.00,339,1.1,n/a,2026-05-05T12:34:56Z
2026-05-05 08:39:59,62.5,54.6,30.07,SSW,205,4.8,8.4,75.2,0.00,,,0.00,352,1.2,n/a,2026-05-05T12:39:59Z
2026-05-05 08:44:57,62.9,54.6,30.07,SSW,212,6.3,12,74.2,0.00,,,0.00,374,1.3,n/a,2026-05-05T12:44:57Z
2026-05-05 08:49:59,63.4,55,30.07,SSW,204,4.5,11.5,74.2,0.00,,,0.00,380,1.4,n/a,2026-05-05T12:49:59Z
2026-05-05 08:54:57,63.9,55.1,30.07,SW,223,4.6,12,73,0.00,,,0.00,387,1.5,n/a,2026-05-05T12:54:57Z
2026-05-05 08:59:59,64.4,55.6,30.08,SW,227,4.8,11.5,73.1,0.00,,,0.00,399,1.6,n/a,2026-05-05T12:59:59Z
2026-05-05 09:04:58,65,55.9,30.08,SW,220,4.5,12,72.5,0.00,,,0.00,417,1.7,n/a,2026-05-05T13:04:58Z
2026-05-05 09:09:54,65.5,56.1,30.08,SW,215,7.6,18.4,71.8,0.00,,,0.00,438,1.8,n/a,2026-05-05T13:09:54Z